Dublin, Ireland

9:00 PM IST on October 23, 2014 (GMT +0100)
Swords West | Change Station
CLOSE
Current Station
Personal Weather Station
Location: Swords, DUBLIN
Elevation: 138 ft
Nearby Weather Stations

Elev 138 ft 53.46 °N, 6.25 °W | Updated 3 seconds ago

Mostly Cloudy
Mostly Cloudy
59.5 °F
Feels Like 59.5 °F
N
4.3
Wind Variable Wind from NW
Gusts 4.9 mph

Today
High -- | Low -- °F
--% Chance of Precip.
Yesterday
High -- | Low -- °F
Precip. -- in
8:06 AM 6:11 PM
Waning Crescent, 0% visible
Pressure 29.83 in
Visibility 6.2 miles
Clouds Scattered Clouds 2000 ft
Mostly Cloudy 25000 ft
Dew Point 54 °F
Humidity 83%
Rainfall 0.00 in
Snow Depth Not available.
UV 0.0 out of 12
Pollen Not available.
Air Quality Not available.
Flu Activity Not available.
METAR EIDW 231930Z 23013KT 9999 SCT020 BKN250 14/12 Q1010 NOSIG

More Conditions Fewer Conditions

Pressure 29.83 in
Visibility 6.2 miles
Clouds Scattered Clouds 2000 ft
Mostly Cloudy 25000 ft
Dew Point 54 °F
Humidity 83%
Rainfall 0.00 in
Snow Depth Not available.
UV 0.0 out of 12
Pollen Not available.
Air Quality Not available.
Flu Activity Not available.
METAR EIDW 231930Z 23013KT 9999 SCT020 BKN250 14/12 Q1010 NOSIG

More Conditions Fewer Conditions

10-Day Weather Forecast

Almanac

Astronomy

Oct. 23, 2014 Rise Set
Actual Time 8:06 AM IST 6:11 PM IST
Civil Twilight 7:30 AM IST 6:47 PM IST
Nautical Twilight 6:49 AM IST 7:27 PM IST
Astronomical Twilight 6:09 AM IST 8:07 PM IST
Moon 7:28 AM IST 6:05 PM IST
Length of Visible Light 11h 16m
Length of Day
10h 04m
Tomorrow will be 4m 2s shorter.
Waning Crescent, 0% of the Moon is Illuminated
Today
Waning Crescent
Oct 23
New
Oct 30
First Quarter
Nov 6
Full
Nov 14
Last Quarter

Today's Extremes

Country Highs Country Lows

Community

WunderPhotos

Upload Photos

1,764,350 photos uploaded!

WunderBlogs® & News

By Dr. Jeff Masters
Director of Meteorology, Weather Underground
By Kari Strenfel
Meteorologist, Weather Underground
By Christopher C. Burt
Weather Historian, Weather Underground
October 23, 2014
October 23, 2014
October 23, 2014

Nearby

Snow Depth

Not available.

Earthquake Activity

City Distance Mag. Time & Date
No recent earthquake activity has been reported nearby.
Minimum magnitude displayed is 2.5.

Coastal Water Temperatures

Place Temperature
No Stations Reporting

Nearby Weather Stations